createdAt,value
2018-09-18T00:00:41.210Z,18.09
2018-09-18T00:03:10.328Z,18.10
2018-09-18T00:05:39.656Z,18.13
2018-09-18T00:08:08.732Z,18.22
2018-09-18T00:10:37.836Z,18.22
2018-09-18T00:13:07.043Z,18.21
2018-09-18T00:15:36.169Z,18.11
2018-09-18T00:18:05.237Z,18.11
2018-09-18T00:20:34.376Z,18.00
2018-09-18T00:23:03.586Z,17.96
2018-09-18T00:25:32.736Z,17.92
2018-09-18T00:28:01.926Z,17.93
2018-09-18T00:30:30.998Z,17.92
2018-09-18T00:33:00.063Z,17.95
2018-09-18T00:35:29.175Z,17.99
2018-09-18T00:37:58.255Z,18.05
2018-09-18T00:40:27.360Z,18.09
2018-09-18T00:42:56.420Z,18.14
2018-09-18T00:45:25.580Z,18.22
2018-09-18T00:47:54.665Z,18.14
2018-09-18T00:50:23.945Z,18.11
2018-09-18T00:52:52.990Z,18.08
2018-09-18T00:55:22.594Z,18.10
2018-09-18T00:57:51.813Z,18.12
2018-09-18T01:00:20.885Z,18.18
2018-09-18T01:02:50.001Z,18.12
2018-09-18T01:05:20.562Z,18.10
2018-09-18T01:07:49.720Z,18.12
2018-09-18T01:10:20.590Z,18.16
2018-09-18T01:12:49.815Z,18.18
2018-09-18T01:15:19.123Z,18.25
2018-09-18T01:17:48.805Z,18.24
2018-09-18T01:20:20.130Z,18.21
2018-09-18T01:22:49.632Z,18.18
2018-09-18T01:25:23.835Z,18.21
2018-09-18T01:27:53.211Z,18.19
2018-09-18T01:30:30.041Z,18.14
2018-09-18T01:33:02.194Z,18.10
2018-09-18T01:35:32.502Z,18.12
2018-09-18T01:38:01.647Z,18.09
2018-09-18T01:40:30.849Z,18.06
2018-09-18T01:44:42.818Z,18.01
2018-09-18T01:47:26.398Z,17.93
2018-09-18T01:49:56.731Z,17.94
2018-09-18T01:52:27.896Z,17.89
2018-09-18T01:54:57.082Z,17.76
2018-09-18T01:57:26.544Z,17.83
2018-09-18T01:59:55.707Z,17.76
2018-09-18T02:02:24.980Z,17.70
2018-09-18T02:04:54.077Z,17.65
2018-09-18T02:07:23.109Z,17.63
2018-09-18T02:09:52.285Z,17.68
2018-09-18T02:12:21.288Z,17.74
2018-09-18T02:14:50.384Z,17.82
2018-09-18T02:17:19.511Z,17.89
2018-09-18T02:19:49.028Z,17.80
2018-09-18T02:22:18.110Z,17.76
2018-09-18T02:24:47.600Z,17.71
2018-09-18T02:27:16.641Z,17.72
2018-09-18T02:29:46.079Z,17.68
2018-09-18T02:32:15.254Z,17.63
2018-09-18T02:34:44.314Z,17.59
2018-09-18T02:37:13.373Z,17.59
2018-09-18T02:39:42.491Z,17.58
2018-09-18T02:42:11.489Z,17.62
2018-09-18T02:44:40.503Z,17.63
2018-09-18T02:47:09.584Z,17.62
2018-09-18T02:49:38.600Z,17.64
2018-09-18T02:52:08.025Z,17.69
2018-09-18T02:54:37.099Z,17.72
2018-09-18T02:57:06.143Z,17.72
2018-09-18T02:59:35.189Z,17.69
2018-09-18T03:02:04.445Z,17.70
2018-09-18T03:04:33.439Z,17.69
2018-09-18T03:07:02.422Z,17.70
2018-09-18T03:09:31.468Z,17.71
2018-09-18T03:12:00.546Z,17.72
2018-09-18T03:14:29.557Z,17.73
2018-09-18T03:16:58.588Z,17.72
2018-09-18T03:19:27.669Z,17.71
2018-09-18T03:21:56.721Z,17.75
2018-09-18T03:24:25.780Z,17.73
2018-09-18T03:26:54.806Z,17.70
2018-09-18T03:29:23.920Z,17.70
2018-09-18T03:31:53.350Z,17.70
2018-09-18T03:34:22.529Z,17.67
2018-09-18T03:36:52.031Z,17.66
2018-09-18T03:39:21.117Z,17.69
2018-09-18T03:41:50.113Z,17.69
2018-09-18T03:44:19.097Z,17.66
2018-09-18T03:46:48.662Z,17.68
2018-09-18T03:49:17.678Z,17.71
2018-09-18T03:51:47.202Z,17.75
2018-09-18T03:54:16.297Z,17.78
2018-09-18T03:56:45.629Z,17.78
2018-09-18T03:59:14.671Z,17.80
2018-09-18T04:01:43.693Z,17.76
2018-09-18T04:04:12.688Z,17.73
2018-09-18T04:06:41.719Z,17.73
2018-09-18T04:09:12.055Z,17.73
2018-09-18T04:11:41.713Z,17.67
2018-09-18T04:14:10.825Z,17.60
2018-09-18T04:16:40.343Z,17.57
2018-09-18T04:19:09.366Z,17.56
2018-09-18T04:21:43.748Z,17.57
2018-09-18T04:24:12.891Z,17.61
2018-09-18T04:26:42.348Z,17.61
2018-09-18T04:29:11.382Z,17.62
2018-09-18T04:31:41.401Z,17.59
2018-09-18T04:34:10.375Z,17.60
2018-09-18T04:36:39.445Z,17.58
2018-09-18T04:39:11.153Z,17.60
2018-09-18T04:41:40.183Z,17.65
2018-09-18T04:44:09.677Z,17.69
2018-09-18T04:46:38.677Z,17.71
2018-09-18T04:49:07.929Z,17.69
2018-09-18T04:51:37.005Z,17.69
2018-09-18T04:54:06.044Z,17.69
2018-09-18T04:56:35.801Z,17.69
2018-09-18T04:59:04.976Z,17.69
2018-09-18T05:01:34.366Z,17.66
2018-09-18T05:04:03.454Z,17.64
2018-09-18T05:06:32.504Z,17.65
2018-09-18T05:09:01.647Z,17.62
2018-09-18T05:11:30.748Z,17.58
2018-09-18T05:13:59.792Z,17.57
2018-09-18T05:16:28.829Z,17.62
2018-09-18T05:18:57.940Z,17.70
2018-09-18T05:21:27.034Z,17.80
2018-09-18T05:23:57.336Z,17.81
2018-09-18T05:26:30.095Z,17.75
2018-09-18T05:28:59.212Z,17.73
2018-09-18T05:31:29.990Z,17.68
2018-09-18T05:33:59.044Z,17.69
2018-09-18T05:36:50.216Z,17.74
2018-09-18T05:39:19.397Z,17.83
2018-09-18T05:41:48.945Z,17.92
2018-09-18T05:44:18.265Z,18.02
2018-09-18T05:46:48.300Z,18.06
2018-09-18T05:49:18.455Z,18.12
2018-09-18T05:51:48.213Z,18.35
2018-09-18T05:54:17.551Z,18.50
2018-09-18T05:56:46.984Z,18.62
2018-09-18T05:59:22.059Z,18.61
2018-09-18T06:01:51.227Z,18.61
2018-09-18T06:04:20.359Z,18.70
2018-09-18T06:06:49.518Z,18.97
2018-09-18T06:09:18.527Z,19.54
2018-09-18T06:11:48.088Z,20.21
2018-09-18T06:14:17.232Z,20.57
2018-09-18T06:16:46.799Z,20.74
2018-09-18T06:19:15.862Z,20.82
2018-09-18T06:21:45.007Z,20.72
2018-09-18T06:24:16.974Z,20.59
2018-09-18T06:26:46.446Z,20.56
2018-09-18T06:29:15.498Z,20.69
2018-09-18T06:31:44.660Z,20.85
2018-09-18T06:34:13.749Z,21.26
2018-09-18T06:36:42.884Z,21.92
2018-09-18T06:39:12.598Z,22.43
2018-09-18T06:41:42.025Z,22.97
2018-09-18T06:44:12.005Z,23.35
2018-09-18T06:46:40.997Z,23.57
2018-09-18T06:49:10.085Z,23.88
2018-09-18T06:51:39.190Z,23.76
2018-09-18T06:54:08.462Z,23.80
2018-09-18T06:56:37.612Z,24.16
2018-09-18T06:59:06.624Z,24.19
2018-09-18T07:01:35.706Z,24.31
2018-09-18T07:04:04.777Z,24.64
2018-09-18T07:06:33.769Z,24.47
2018-09-18T07:09:02.808Z,23.78
2018-09-18T07:11:32.088Z,23.05
2018-09-18T07:14:01.370Z,22.72
2018-09-18T07:16:30.562Z,22.41
2018-09-18T07:18:59.693Z,22.41
2018-09-18T07:21:28.774Z,22.53
2018-09-18T07:23:57.819Z,22.43
2018-09-18T07:26:26.898Z,22.43
2018-09-18T07:28:56.337Z,22.42
2018-09-18T07:31:25.350Z,22.75
2018-09-18T07:33:54.493Z,22.77
2018-09-18T07:36:23.518Z,22.73
2018-09-18T07:38:52.514Z,23.25
2018-09-18T07:41:21.624Z,24.27
2018-09-18T07:43:50.729Z,25.11
2018-09-18T07:46:19.726Z,25.27
2018-09-18T07:48:52.257Z,24.99
2018-09-18T07:51:21.367Z,25.30
2018-09-18T07:53:50.839Z,26.00
2018-09-18T07:56:20.436Z,26.71
2018-09-18T07:58:50.680Z,27.70
2018-09-18T08:01:19.737Z,28.83
2018-09-18T08:03:49.570Z,28.75
2018-09-18T08:06:18.590Z,29.46
2018-09-18T08:08:48.025Z,29.73
2018-09-18T08:11:17.106Z,30.30
2018-09-18T08:13:46.549Z,30.08
2018-09-18T08:16:15.560Z,29.52
2018-09-18T08:18:44.676Z,29.58
2018-09-18T08:21:13.871Z,28.70
2018-09-18T08:23:42.948Z,28.02
2018-09-18T08:26:12.048Z,27.93
2018-09-18T08:28:41.050Z,27.35
2018-09-18T08:31:10.050Z,27.62
2018-09-18T08:33:39.389Z,28.00
2018-09-18T08:36:08.454Z,28.71
2018-09-18T08:38:37.513Z,29.15
2018-09-18T08:41:06.741Z,28.45
2018-09-18T08:43:35.814Z,28.85
2018-09-18T08:46:05.023Z,28.58
2018-09-18T08:48:33.955Z,28.58
2018-09-18T08:51:03.078Z,28.92
2018-09-18T08:53:33.004Z,28.34
2018-09-18T08:56:02.117Z,28.43
2018-09-18T08:58:31.153Z,28.81
2018-09-18T09:01:00.172Z,27.91
2018-09-18T09:03:29.209Z,28.71
2018-09-18T09:05:58.220Z,28.54
2018-09-18T09:08:27.269Z,28.80
2018-09-18T09:10:56.351Z,28.99
2018-09-18T09:13:25.363Z,29.05
2018-09-18T09:15:54.412Z,29.12
2018-09-18T09:18:23.593Z,29.68
2018-09-18T09:20:52.682Z,29.28
2018-09-18T09:23:21.643Z,29.51
2018-09-18T09:25:50.628Z,30.23
2018-09-18T09:28:19.611Z,30.44
2018-09-18T09:30:49.109Z,30.58
2018-09-18T09:33:18.151Z,30.16
2018-09-18T09:35:47.481Z,29.28
2018-09-18T09:38:16.512Z,29.39
2018-09-18T09:40:45.843Z,29.51
2018-09-18T09:43:16.395Z,29.83
2018-09-18T09:46:26.243Z,27.55
2018-09-18T09:49:35.394Z,26.25
2018-09-18T09:52:04.421Z,25.89
2018-09-18T09:54:34.519Z,25.87
2018-09-18T09:57:04.454Z,26.23
2018-09-18T09:59:33.724Z,27.29
2018-09-18T10:02:08.107Z,28.56
2018-09-18T10:04:37.126Z,28.50
2018-09-18T10:07:06.989Z,28.56
2018-09-18T10:09:36.738Z,29.30
2018-09-18T10:12:06.346Z,30.25
2018-09-18T10:14:35.778Z,30.59
2018-09-18T10:17:04.906Z,30.46
2018-09-18T10:19:33.911Z,30.69
2018-09-18T10:22:02.958Z,30.41
2018-09-18T10:24:31.993Z,31.75
2018-09-18T10:27:01.112Z,31.51
2018-09-18T10:29:30.010Z,29.96
2018-09-18T10:31:59.011Z,30.13
2018-09-18T10:34:28.049Z,30.39
2018-09-18T10:36:57.081Z,30.04
2018-09-18T10:39:26.086Z,30.08
2018-09-18T10:41:55.211Z,30.79
2018-09-18T10:44:24.179Z,31.98
2018-09-18T10:46:53.233Z,32.53
2018-09-18T10:49:22.236Z,30.88
2018-09-18T10:51:51.356Z,28.61
2018-09-18T10:54:20.459Z,27.80
2018-09-18T10:56:50.403Z,28.43
2018-09-18T10:59:19.490Z,29.31
2018-09-18T11:01:48.802Z,29.68
2018-09-18T11:04:17.872Z,31.06
2018-09-18T11:06:47.293Z,29.66
2018-09-18T11:09:16.613Z,28.16
2018-09-18T11:11:46.721Z,27.99
2018-09-18T11:14:17.600Z,28.01
2018-09-18T11:16:47.305Z,27.92
2018-09-18T11:19:16.280Z,27.44
2018-09-18T11:21:45.336Z,27.16
2018-09-18T11:24:14.262Z,26.86
2018-09-18T11:26:43.260Z,26.34
2018-09-18T11:29:12.302Z,25.82
2018-09-18T11:31:41.293Z,25.32
2018-09-18T11:34:10.528Z,25.22
2018-09-18T11:36:39.782Z,24.96
2018-09-18T11:39:08.905Z,24.39
2018-09-18T11:41:37.947Z,24.36
2018-09-18T11:44:07.070Z,25.09
2018-09-18T11:46:36.300Z,25.67
2018-09-18T11:49:05.309Z,26.24
2018-09-18T11:51:34.306Z,27.15
2018-09-18T11:54:03.378Z,27.93
2018-09-18T11:56:32.399Z,28.98
2018-09-18T11:59:01.367Z,30.07
2018-09-18T12:01:30.375Z,30.94
2018-09-18T12:03:59.393Z,30.08
2018-09-18T12:06:28.392Z,29.95
2018-09-18T12:08:57.461Z,28.96
2018-09-18T12:11:26.541Z,29.38
2018-09-18T12:13:56.039Z,29.31
2018-09-18T12:16:25.022Z,29.93
2018-09-18T12:18:54.145Z,30.34
2018-09-18T12:21:23.245Z,30.47
2018-09-18T12:23:52.230Z,31.02
2018-09-18T12:26:21.211Z,31.81
2018-09-18T12:28:50.151Z,32.35
2018-09-18T12:31:19.183Z,32.10
2018-09-18T12:33:48.677Z,31.52
2018-09-18T12:36:17.622Z,30.99
2018-09-18T12:38:47.205Z,30.19
2018-09-18T12:41:16.216Z,29.25
2018-09-18T12:43:45.665Z,28.98
2018-09-18T12:46:14.930Z,28.74
2018-09-18T12:54:40.122Z,27.80
2018-09-18T12:57:10.081Z,27.87
2018-09-18T12:59:39.258Z,28.03
2018-09-18T13:02:09.087Z,28.18
2018-09-18T13:04:38.450Z,28.28
2018-09-18T13:07:07.894Z,28.43
2018-09-18T13:09:37.509Z,28.42
2018-09-18T13:12:06.763Z,28.54
2018-09-18T13:14:36.471Z,28.66
2018-09-18T13:17:06.300Z,28.89
2018-09-18T13:19:35.254Z,29.11
2018-09-18T13:22:04.241Z,29.39
2018-09-18T13:24:33.256Z,29.68
2018-09-18T13:27:02.420Z,29.62
2018-09-18T13:29:31.473Z,29.31
2018-09-18T13:32:00.468Z,28.86
2018-09-18T13:34:29.461Z,28.47
2018-09-18T13:36:58.442Z,28.00
2018-09-18T13:39:27.384Z,27.56
2018-09-18T13:41:56.350Z,27.10
2018-09-18T13:44:25.336Z,26.75
2018-09-18T13:46:54.350Z,26.50
2018-09-18T13:49:23.507Z,26.50
2018-09-18T13:51:52.693Z,26.56
2018-09-18T13:54:21.662Z,26.47
2018-09-18T13:56:50.800Z,26.56
2018-09-18T13:59:19.871Z,26.94
2018-09-18T14:01:49.314Z,27.78
2018-09-18T14:04:18.401Z,28.40
2018-09-18T14:06:47.929Z,28.62
2018-09-18T14:09:17.130Z,28.57
2018-09-18T14:11:46.568Z,28.54
2018-09-18T14:14:15.561Z,28.37
2018-09-18T14:16:44.547Z,27.96
2018-09-18T14:19:13.568Z,27.57
2018-09-18T14:21:42.595Z,27.21
2018-09-18T14:24:11.578Z,26.91
2018-09-18T14:26:40.811Z,26.70
2018-09-18T14:29:09.685Z,26.61
2018-09-18T14:31:38.658Z,26.44
2018-09-18T14:34:07.640Z,26.32
2018-09-18T14:36:36.639Z,26.23
2018-09-18T14:39:08.361Z,26.23
2018-09-18T14:41:37.843Z,26.14
2018-09-18T14:44:06.911Z,26.52
2018-09-18T14:46:35.930Z,25.96
2018-09-18T14:49:05.061Z,23.69
2018-09-18T14:51:34.277Z,22.70
2018-09-18T14:54:03.242Z,22.41
2018-09-18T14:56:32.239Z,22.14
2018-09-18T14:59:01.267Z,21.82
2018-09-18T15:01:30.289Z,21.76
2018-09-18T15:03:59.423Z,21.41
2018-09-18T15:06:28.391Z,20.97
2018-09-18T15:08:57.520Z,21.69
2018-09-18T15:11:26.524Z,21.47
2018-09-18T15:13:55.558Z,21.54
2018-09-18T15:16:24.592Z,22.44
2018-09-18T15:18:54.284Z,23.02
2018-09-18T15:21:23.302Z,22.40
2018-09-18T15:23:52.305Z,21.85
2018-09-18T15:26:21.338Z,21.92
2018-09-18T15:28:50.433Z,22.78
2018-09-18T15:31:19.442Z,22.61
2018-09-18T15:33:48.793Z,22.52
2018-09-18T15:36:17.842Z,22.43
2018-09-18T15:38:47.599Z,22.33
2018-09-18T15:41:16.706Z,22.16
2018-09-18T15:43:46.252Z,22.08
2018-09-18T15:46:15.313Z,22.10
2018-09-18T15:48:44.446Z,21.94
2018-09-18T15:51:13.568Z,21.68
2018-09-18T15:53:42.702Z,21.61
2018-09-18T15:56:11.699Z,21.38
2018-09-18T15:58:40.682Z,21.28
2018-09-18T16:01:09.788Z,20.89
2018-09-18T16:03:38.821Z,21.02
2018-09-18T16:06:07.944Z,21.21
2018-09-18T16:08:37.025Z,21.25
2018-09-18T16:11:06.491Z,21.46
2018-09-18T16:13:35.685Z,21.75
2018-09-18T16:16:04.770Z,21.83
2018-09-18T16:18:33.883Z,21.83
2018-09-18T16:21:03.005Z,21.83
2018-09-18T16:23:32.060Z,21.79
2018-09-18T16:26:01.202Z,21.66
2018-09-18T16:28:30.261Z,21.46
2018-09-18T16:30:59.469Z,21.30
2018-09-18T16:33:28.624Z,20.95
2018-09-18T16:35:57.747Z,20.92
2018-09-18T16:38:26.870Z,20.80
2018-09-18T16:40:56.129Z,20.67
2018-09-18T16:43:25.164Z,20.69
2018-09-18T16:45:54.265Z,20.76
2018-09-18T16:48:23.918Z,20.63
2018-09-18T16:50:52.991Z,20.62
2018-09-18T16:53:22.266Z,20.87
2018-09-18T16:55:51.370Z,21.12
2018-09-18T16:58:20.389Z,21.32
2018-09-18T17:00:49.849Z,21.50
2018-09-18T17:03:19.627Z,21.62
2018-09-18T17:05:49.249Z,21.72
2018-09-18T17:08:18.316Z,21.89
2018-09-18T17:10:48.661Z,21.96
2018-09-18T17:13:17.769Z,21.81
2018-09-18T17:15:47.295Z,21.71
2018-09-18T17:18:16.499Z,21.91
2018-09-18T17:20:47.650Z,21.95
2018-09-18T17:23:16.842Z,21.99
2018-09-18T17:25:47.169Z,22.15
2018-09-18T17:28:16.364Z,22.07
2018-09-18T17:30:45.265Z,21.42
2018-09-18T17:33:14.243Z,20.67
2018-09-18T17:35:43.289Z,20.36
2018-09-18T17:38:15.205Z,20.12
2018-09-18T17:40:44.377Z,19.95
2018-09-18T17:43:13.538Z,19.80
2018-09-18T17:45:56.558Z,19.99
2018-09-18T17:48:25.674Z,20.20
2018-09-18T17:50:54.673Z,20.15
2018-09-18T17:53:26.767Z,20.04
2018-09-18T17:55:56.705Z,19.96
2018-09-18T17:58:25.812Z,20.33
2018-09-18T18:00:54.915Z,20.47
2018-09-18T18:03:23.958Z,20.88
2018-09-18T18:05:53.022Z,21.41
2018-09-18T18:08:22.152Z,21.72
2018-09-18T18:10:51.411Z,21.91
2018-09-18T18:13:20.590Z,21.89
2018-09-18T18:15:50.085Z,21.90
2018-09-18T18:18:19.310Z,21.98
2018-09-18T18:20:48.812Z,21.97
2018-09-18T18:23:17.977Z,21.95
2018-09-18T18:25:47.627Z,21.95
2018-09-18T18:28:16.626Z,21.83
2018-09-18T18:30:47.366Z,21.75
2018-09-18T18:33:18.061Z,21.47
2018-09-18T18:35:47.348Z,20.98
2018-09-18T18:38:16.374Z,20.60
2018-09-18T18:40:45.455Z,20.49
2018-09-18T18:43:14.544Z,21.10
2018-09-18T18:45:43.650Z,21.55
2018-09-18T18:48:13.268Z,21.74
2018-09-18T18:50:42.040Z,21.79
2018-09-18T18:53:11.585Z,21.88
2018-09-18T18:55:40.742Z,21.87
2018-09-18T18:58:09.796Z,21.91
2018-09-18T19:00:38.842Z,21.98
2018-09-18T19:03:08.055Z,21.71
2018-09-18T19:05:37.082Z,21.14
2018-09-18T19:08:06.144Z,20.56
2018-09-18T19:10:35.203Z,20.23
2018-09-18T19:13:04.309Z,20.29
2018-09-18T19:15:33.509Z,20.33
2018-09-18T19:18:02.689Z,20.40
2018-09-18T19:20:31.933Z,20.56
2018-09-18T19:23:01.077Z,20.41
2018-09-18T19:25:30.415Z,20.23
2018-09-18T19:27:59.596Z,20.43
2018-09-18T19:30:28.969Z,20.44
2018-09-18T19:32:58.092Z,20.48
2018-09-18T19:35:27.246Z,20.69
2018-09-18T19:37:56.513Z,20.92
2018-09-18T19:40:25.815Z,21.02
2018-09-18T19:42:55.112Z,20.91
2018-09-18T19:45:24.270Z,20.93
2018-09-18T19:47:53.364Z,20.61
2018-09-18T19:50:22.534Z,20.15
2018-09-18T19:52:51.623Z,19.94
2018-09-18T19:55:21.450Z,19.81
2018-09-18T19:57:50.576Z,19.86
2018-09-18T20:00:23.441Z,19.81
2018-09-18T20:02:52.426Z,19.77
2018-09-18T20:05:21.901Z,19.99
2018-09-18T20:07:51.001Z,20.07
2018-09-18T20:10:22.741Z,19.93
2018-09-18T20:13:00.132Z,19.79
2018-09-18T20:15:29.221Z,19.69
2018-09-18T20:17:58.244Z,19.46
2018-09-18T20:20:27.771Z,19.23
2018-09-18T20:22:57.069Z,19.52
2018-09-18T20:25:26.173Z,19.86
2018-09-18T20:27:55.242Z,20.23
2018-09-18T20:30:24.473Z,20.49
2018-09-18T20:32:53.592Z,20.81
2018-09-18T20:35:22.652Z,21.01
2018-09-18T20:37:51.836Z,21.04
2018-09-18T20:40:23.492Z,20.87
2018-09-18T20:42:52.775Z,20.32
2018-09-18T20:45:22.381Z,19.99
2018-09-18T20:47:51.411Z,19.84
2018-09-18T20:50:23.905Z,19.85
2018-09-18T20:52:54.810Z,19.57
2018-09-18T20:55:24.012Z,19.31
2018-09-18T20:57:53.143Z,19.15
2018-09-18T21:00:22.700Z,19.41
2018-09-18T21:02:51.768Z,20.07
2018-09-18T21:05:22.174Z,20.14
2018-09-18T21:07:51.428Z,19.83
2018-09-18T21:10:24.505Z,19.57
2018-09-18T21:12:53.599Z,19.52
2018-09-18T21:15:22.641Z,19.61
2018-09-18T21:17:51.741Z,19.63
2018-09-18T21:20:23.729Z,19.69
2018-09-18T21:22:53.344Z,19.91
2018-09-18T21:25:30.919Z,19.97
2018-09-18T21:28:00.087Z,19.78
2018-09-18T21:30:29.391Z,19.43
2018-09-18T21:32:58.901Z,19.14
2018-09-18T21:35:27.911Z,19.00
2018-09-18T21:37:56.894Z,19.11
2018-09-18T21:40:26.348Z,18.94
2018-09-18T21:42:55.620Z,18.88
2018-09-18T21:45:24.783Z,18.76
2018-09-18T21:47:54.022Z,18.69
2018-09-18T21:50:23.024Z,18.71
2018-09-18T21:52:52.178Z,18.78
2018-09-18T21:55:21.327Z,18.91
2018-09-18T21:57:50.543Z,19.34
2018-09-18T22:00:23.533Z,19.75
2018-09-18T22:09:55.898Z,19.49
2018-09-18T22:12:54.367Z,19.53
2018-09-18T22:15:52.076Z,19.61
2018-09-18T22:18:21.323Z,19.51
2018-09-18T22:20:50.578Z,19.42
2018-09-18T22:23:19.547Z,19.32
2018-09-18T22:25:49.230Z,19.07
2018-09-18T22:28:18.241Z,18.71
2018-09-18T22:30:47.817Z,18.47
2018-09-18T22:33:17.026Z,18.33
2018-09-18T22:35:46.748Z,18.52
2018-09-18T22:38:15.810Z,18.76
2018-09-18T22:40:45.032Z,18.78
2018-09-18T22:43:14.213Z,18.71
2018-09-18T22:45:43.189Z,18.79
2018-09-18T22:48:12.423Z,18.82
2018-09-18T22:50:47.787Z,18.93
2018-09-18T22:53:17.032Z,18.99
2018-09-18T22:55:46.493Z,19.07
2018-09-18T22:58:15.607Z,19.15
2018-09-18T23:00:44.833Z,19.17
2018-09-18T23:03:14.014Z,19.18
2018-09-18T23:05:43.095Z,19.05
2018-09-18T23:08:12.347Z,18.91
2018-09-18T23:10:41.830Z,18.78
2018-09-18T23:13:10.928Z,18.62
2018-09-18T23:15:41.084Z,18.59
2018-09-18T23:18:10.532Z,18.53
2018-09-18T23:20:41.379Z,18.46
2018-09-18T23:23:10.817Z,18.38
2018-09-18T23:25:40.466Z,18.43
2018-09-18T23:28:09.809Z,18.42
2018-09-18T23:30:39.436Z,18.57
2018-09-18T23:33:08.736Z,18.69
2018-09-18T23:35:38.250Z,18.67
2018-09-18T23:38:07.551Z,18.64
2018-09-18T23:40:36.857Z,18.58
2018-09-18T23:43:06.779Z,18.50
2018-09-18T23:45:36.168Z,18.46
2018-09-18T23:48:05.254Z,18.44
2018-09-18T23:50:34.650Z,18.43
2018-09-18T23:53:04.073Z,18.45
2018-09-18T23:55:33.366Z,18.28
2018-09-18T23:58:02.479Z,18.05
